createdAt,value
2019-05-25T00:01:46.292Z,7.27
2019-05-25T00:04:51.097Z,7.50
2019-05-25T00:07:55.967Z,6.93
2019-05-25T00:11:01.102Z,7.50
2019-05-25T00:14:05.906Z,7.47
2019-05-25T00:17:11.064Z,7.57
2019-05-25T00:20:16.927Z,6.90
2019-05-25T00:23:21.661Z,7.00
2019-05-25T00:26:27.473Z,6.77
2019-05-25T00:29:32.294Z,7.03
2019-05-25T00:32:37.459Z,6.93
2019-05-25T00:35:43.217Z,7.10
2019-05-25T00:38:48.082Z,7.20
2019-05-25T00:41:54.483Z,7.30
2019-05-25T00:44:59.883Z,7.33
2019-05-25T00:48:04.731Z,8.00
2019-05-25T00:51:09.805Z,7.17
2019-05-25T00:54:27.028Z,7.43
2019-05-25T00:57:21.255Z,7.37
2019-05-25T01:00:26.151Z,7.03
2019-05-25T01:03:30.973Z,8.33
2019-05-25T01:06:35.840Z,8.07
2019-05-25T01:09:40.797Z,7.87
2019-05-25T01:12:46.142Z,7.80
2019-05-25T01:15:51.272Z,8.10
2019-05-25T01:18:56.082Z,8.17
2019-05-25T01:22:00.902Z,8.30
2019-05-25T01:25:06.329Z,7.80
2019-05-25T01:28:11.566Z,8.50
2019-05-25T01:31:16.743Z,7.70
2019-05-25T01:34:21.492Z,8.40
2019-05-25T01:37:26.262Z,8.53
2019-05-25T01:40:31.321Z,7.63
2019-05-25T01:43:36.234Z,8.17
2019-05-25T01:46:41.429Z,8.30
2019-05-25T01:49:46.537Z,8.20
2019-05-25T01:52:51.592Z,7.97
2019-05-25T01:55:56.420Z,7.90
2019-05-25T01:59:01.138Z,8.00
2019-05-25T02:02:05.962Z,7.30
2019-05-25T02:05:11.508Z,7.70
2019-05-25T02:08:16.673Z,8.00
2019-05-25T02:11:21.429Z,8.17
2019-05-25T02:14:26.587Z,7.83
2019-05-25T02:17:31.319Z,8.17
2019-05-25T02:20:36.066Z,7.93
2019-05-25T02:23:41.142Z,8.77
2019-05-25T02:26:45.928Z,7.77
2019-05-25T02:29:51.106Z,8.03
2019-05-25T02:32:56.384Z,8.33
2019-05-25T02:36:01.522Z,8.17
2019-05-25T02:39:07.898Z,8.37
2019-05-25T02:42:13.042Z,7.70
2019-05-25T02:45:18.602Z,7.90
2019-05-25T02:48:24.598Z,8.00
2019-05-25T02:51:29.748Z,7.30
2019-05-25T02:54:34.585Z,7.50
2019-05-25T02:57:39.360Z,8.10
2019-05-25T03:00:44.250Z,8.20
2019-05-25T03:03:49.363Z,8.47
2019-05-25T03:06:55.194Z,7.77
2019-05-25T03:10:01.221Z,8.10
2019-05-25T03:13:06.209Z,8.63
2019-05-25T03:16:10.970Z,8.23
2019-05-25T03:19:15.714Z,7.93
2019-05-25T03:22:21.545Z,7.73
2019-05-25T03:25:26.647Z,8.07
2019-05-25T03:28:31.595Z,7.80
2019-05-25T03:31:36.355Z,8.13
2019-05-25T03:34:41.104Z,8.23
2019-05-25T03:37:45.879Z,8.27
2019-05-25T03:40:51.017Z,7.70
2019-05-25T03:43:55.777Z,8.20
2019-05-25T03:47:00.614Z,8.43
2019-05-25T03:50:06.570Z,7.77
2019-05-25T03:53:11.641Z,8.10
2019-05-25T03:56:16.622Z,8.30
2019-05-25T03:59:21.727Z,7.60
2019-05-25T04:02:26.864Z,8.00
2019-05-25T04:05:31.622Z,7.90
2019-05-25T04:08:36.379Z,7.30
2019-05-25T04:11:42.208Z,8.20
2019-05-25T04:14:47.301Z,8.93
2019-05-25T04:17:52.405Z,8.07
2019-05-25T04:20:57.495Z,8.70
2019-05-25T04:24:02.262Z,8.40
2019-05-25T04:27:07.309Z,8.43
2019-05-25T04:30:12.842Z,8.27
2019-05-25T04:33:17.594Z,8.23
2019-05-25T04:36:22.419Z,8.13
2019-05-25T04:39:27.143Z,8.33
2019-05-25T04:42:32.253Z,9.13
2019-05-25T04:45:37.078Z,8.40
2019-05-25T04:48:41.832Z,8.67
2019-05-25T04:51:46.608Z,8.60
2019-05-25T04:54:51.713Z,8.87
2019-05-25T04:57:56.779Z,8.07
2019-05-25T05:01:02.645Z,8.33
2019-05-25T05:04:07.479Z,8.87
2019-05-25T05:07:12.489Z,9.00
2019-05-25T05:10:17.459Z,8.67
2019-05-25T05:13:22.218Z,9.00
2019-05-25T05:16:26.978Z,9.17
2019-05-25T05:19:31.726Z,8.40
2019-05-25T05:22:36.473Z,9.87
2019-05-25T05:25:41.281Z,9.00
2019-05-25T05:28:49.140Z,9.50
2019-05-25T05:31:53.518Z,9.47
2019-05-25T05:34:59.512Z,9.37
2019-05-25T05:38:07.149Z,9.40
2019-05-25T05:41:13.225Z,9.40
2019-05-25T05:44:21.842Z,10.27
2019-05-25T05:47:28.779Z,10.30
2019-05-25T05:50:36.976Z,11.00
2019-05-25T05:53:43.652Z,11.97
2019-05-25T05:56:48.683Z,11.30
2019-05-25T05:59:53.523Z,12.73
2019-05-25T06:02:58.286Z,12.30
2019-05-25T06:06:03.514Z,12.70
2019-05-25T06:09:09.126Z,13.33
2019-05-25T06:12:14.223Z,12.50
2019-05-25T06:15:19.205Z,12.57
2019-05-25T06:18:24.101Z,12.40
2019-05-25T06:21:28.877Z,11.93
2019-05-25T06:24:33.780Z,11.47
2019-05-25T06:27:38.709Z,11.73
2019-05-25T06:30:43.981Z,11.93
2019-05-25T06:33:49.171Z,12.30
2019-05-25T06:36:54.104Z,11.07
2019-05-25T06:39:58.875Z,11.70
2019-05-25T06:43:04.318Z,11.77
2019-05-25T06:46:09.154Z,11.60
2019-05-25T06:49:14.016Z,11.33
2019-05-25T06:52:19.194Z,10.37
2019-05-25T06:55:23.897Z,10.27
2019-05-25T06:58:28.700Z,11.00
2019-05-25T07:01:33.546Z,11.07
2019-05-25T07:04:39.366Z,9.93
2019-05-25T07:07:44.570Z,9.10
2019-05-25T07:10:49.868Z,9.87
2019-05-25T07:13:54.991Z,9.70
2019-05-25T07:16:59.984Z,10.10
2019-05-25T07:20:06.211Z,9.97
2019-05-25T07:23:11.063Z,9.57
2019-05-25T07:26:15.893Z,10.00
2019-05-25T07:29:20.653Z,9.47
2019-05-25T07:32:25.466Z,10.30
2019-05-25T07:35:30.203Z,9.87
2019-05-25T07:38:35.052Z,9.57
2019-05-25T07:41:40.492Z,9.47
2019-05-25T07:44:45.287Z,8.93
2019-05-25T07:47:50.020Z,9.43
2019-05-25T07:50:55.300Z,9.23
2019-05-25T07:54:00.150Z,10.43
2019-05-25T07:57:05.547Z,9.87
2019-05-25T08:00:11.858Z,9.70
2019-05-25T08:03:16.656Z,10.37
2019-05-25T08:06:21.530Z,9.20
2019-05-25T08:09:26.356Z,9.50
2019-05-25T08:12:31.100Z,9.53
2019-05-25T08:15:36.149Z,8.97
2019-05-25T08:18:40.911Z,9.63
2019-05-25T08:21:46.031Z,9.20
2019-05-25T08:24:50.820Z,9.43
2019-05-25T08:27:55.628Z,8.77
2019-05-25T08:31:01.425Z,8.50
2019-05-25T08:34:06.406Z,9.30
2019-05-25T08:37:11.154Z,8.87
2019-05-25T08:40:16.220Z,9.30
2019-05-25T08:43:21.084Z,8.10
2019-05-25T08:46:26.161Z,9.20
2019-05-25T08:49:32.612Z,8.07
2019-05-25T08:52:37.519Z,9.17
2019-05-25T08:55:42.661Z,8.70
2019-05-25T08:58:48.833Z,8.40
2019-05-25T09:01:53.793Z,8.50
2019-05-25T09:04:58.904Z,7.70
2019-05-25T09:08:03.722Z,7.73
2019-05-25T09:11:09.017Z,7.80
2019-05-25T09:14:14.943Z,8.00
2019-05-25T09:17:19.965Z,8.20
2019-05-25T09:20:25.194Z,8.43
2019-05-25T09:23:30.189Z,8.07
2019-05-25T09:26:35.317Z,8.33
2019-05-25T09:29:40.509Z,7.17
2019-05-25T09:32:45.220Z,8.17
2019-05-25T09:35:50.402Z,7.43
2019-05-25T09:38:55.449Z,6.43
2019-05-25T09:42:00.307Z,7.53
2019-05-25T09:45:07.243Z,7.60
2019-05-25T09:48:12.253Z,7.90
2019-05-25T09:51:17.058Z,7.33
2019-05-25T09:54:21.868Z,8.33
2019-05-25T09:57:28.278Z,7.50
2019-05-25T10:00:33.849Z,8.93
2019-05-25T10:03:38.702Z,8.80
2019-05-25T10:06:43.604Z,9.20
2019-05-25T10:09:48.795Z,8.47
2019-05-25T10:12:53.632Z,8.13
2019-05-25T10:15:58.432Z,8.37
2019-05-25T10:19:03.157Z,8.13
2019-05-25T10:22:08.113Z,8.70
2019-05-25T10:25:13.225Z,8.00
2019-05-25T10:28:18.061Z,9.07
2019-05-25T10:31:23.114Z,8.53
2019-05-25T10:34:27.999Z,8.77
2019-05-25T10:37:33.456Z,8.13
2019-05-25T10:40:38.255Z,8.30
2019-05-25T10:43:43.104Z,8.33
2019-05-25T10:46:47.885Z,8.30
2019-05-25T10:49:52.756Z,7.90
2019-05-25T10:52:57.523Z,8.37
2019-05-25T10:56:02.808Z,7.27
2019-05-25T10:59:07.757Z,7.50
2019-05-25T11:02:12.513Z,9.67
2019-05-25T11:05:18.620Z,8.53
2019-05-25T11:08:23.395Z,8.83
2019-05-25T11:11:28.370Z,9.50
2019-05-25T11:14:33.168Z,9.77
2019-05-25T11:17:38.555Z,9.60
2019-05-25T11:20:43.378Z,8.20
2019-05-25T11:23:48.296Z,10.13
2019-05-25T11:26:53.285Z,9.03
2019-05-25T11:30:08.419Z,7.00
2019-05-25T11:33:04.619Z,7.67
2019-05-25T11:36:09.381Z,9.13
2019-05-25T11:39:14.238Z,7.83
2019-05-25T11:42:19.020Z,9.40
2019-05-25T11:45:24.911Z,8.23
2019-05-25T11:48:29.990Z,8.27
2019-05-25T11:51:35.028Z,8.37
2019-05-25T11:54:40.346Z,8.33
2019-05-25T11:57:46.332Z,10.80
2019-05-25T12:00:52.324Z,10.07
2019-05-25T12:03:57.174Z,8.40
2019-05-25T12:07:02.610Z,9.77
2019-05-25T12:10:09.021Z,11.10
2019-05-25T12:13:14.119Z,11.03
2019-05-25T12:16:19.062Z,9.90
2019-05-25T12:19:24.027Z,10.37
2019-05-25T12:22:28.803Z,10.00
2019-05-25T12:25:33.660Z,10.97
2019-05-25T12:28:38.410Z,10.93
2019-05-25T12:31:43.843Z,10.60
2019-05-25T12:34:48.641Z,9.83
2019-05-25T12:37:53.711Z,10.80
2019-05-25T12:40:58.562Z,10.90
2019-05-25T12:44:03.545Z,9.87
2019-05-25T12:47:08.404Z,9.53
2019-05-25T12:50:13.719Z,8.57
2019-05-25T12:53:18.488Z,10.53
2019-05-25T12:56:23.355Z,9.10
2019-05-25T12:59:28.174Z,8.63
2019-05-25T13:02:33.090Z,7.97
2019-05-25T13:05:37.969Z,8.80
2019-05-25T13:08:44.107Z,9.27
2019-05-25T13:11:49.021Z,8.77
2019-05-25T13:14:54.206Z,9.07
2019-05-25T13:17:59.685Z,8.87
2019-05-25T13:21:04.473Z,7.93
2019-05-25T13:24:09.273Z,7.43
2019-05-25T13:27:14.737Z,8.03
2019-05-25T13:30:20.405Z,7.60
2019-05-25T13:33:25.800Z,7.40
2019-05-25T13:36:30.834Z,7.73
2019-05-25T13:39:35.575Z,6.93
2019-05-25T13:42:40.314Z,6.37
2019-05-25T13:45:46.185Z,5.97
2019-05-25T13:48:51.440Z,6.90
2019-05-25T13:51:56.469Z,7.27
2019-05-25T13:55:01.309Z,6.33
2019-05-25T13:58:06.523Z,6.80
2019-05-25T14:01:25.617Z,6.00
2019-05-25T14:04:18.477Z,7.00
2019-05-25T14:07:23.591Z,6.83
2019-05-25T14:10:28.772Z,6.10
2019-05-25T14:13:34.132Z,6.30
2019-05-25T14:16:39.229Z,5.37
2019-05-25T14:19:44.313Z,5.23
2019-05-25T14:22:49.082Z,4.40
2019-05-25T14:25:53.922Z,4.03
2019-05-25T14:28:59.289Z,3.57
2019-05-25T14:32:04.179Z,3.57
2019-05-25T14:35:10.076Z,2.87
2019-05-25T14:38:14.944Z,2.53
2019-05-25T14:41:19.647Z,2.30
2019-05-25T14:44:24.732Z,1.80
2019-05-25T14:47:30.080Z,2.13
2019-05-25T14:50:36.861Z,2.30
2019-05-25T14:53:42.082Z,2.40
2019-05-25T14:56:46.838Z,2.43
2019-05-25T14:59:51.643Z,1.20
2019-05-25T15:02:56.470Z,1.10
2019-05-25T15:06:01.271Z,2.60
2019-05-25T15:09:07.359Z,1.50
2019-05-25T15:12:12.127Z,1.50
2019-05-25T15:15:17.242Z,1.17
2019-05-25T15:18:21.964Z,1.33
2019-05-25T15:21:27.042Z,1.33
2019-05-25T15:24:31.746Z,1.00
2019-05-25T15:27:37.072Z,0.90
2019-05-25T15:30:42.159Z,1.10
2019-05-25T15:33:47.022Z,1.10
2019-05-25T15:36:51.825Z,0.80
2019-05-25T15:39:56.943Z,0.80
2019-05-25T15:43:01.667Z,1.10
2019-05-25T15:46:06.979Z,0.70
2019-05-25T15:49:11.839Z,1.07
2019-05-25T15:52:17.005Z,1.00
2019-05-25T15:55:22.225Z,0.93
2019-05-25T15:58:27.086Z,1.00
2019-05-25T16:01:32.027Z,1.13
2019-05-25T16:04:37.276Z,1.50
2019-05-25T16:07:45.379Z,1.33
2019-05-25T16:10:50.290Z,1.30
2019-05-25T16:13:55.384Z,1.10
2019-05-25T16:17:00.633Z,1.20
2019-05-25T16:20:05.775Z,1.10
2019-05-25T16:23:13.543Z,1.23
2019-05-25T16:26:18.303Z,2.17
2019-05-25T16:29:23.471Z,1.50
2019-05-25T16:32:28.262Z,1.10
2019-05-25T16:35:33.413Z,1.30
2019-05-25T16:38:38.320Z,1.20
2019-05-25T16:41:43.461Z,1.27
2019-05-25T16:44:48.318Z,1.20
2019-05-25T16:47:53.287Z,1.13
2019-05-25T16:50:59.612Z,1.10
2019-05-25T16:54:04.430Z,1.10
2019-05-25T16:57:10.554Z,1.00
2019-05-25T17:00:19.638Z,1.10
2019-05-25T17:03:28.438Z,1.10
2019-05-25T17:06:31.870Z,0.90
2019-05-25T17:09:37.707Z,1.10
2019-05-25T17:12:42.715Z,0.90
2019-05-25T17:15:47.529Z,1.20
2019-05-25T17:18:52.341Z,1.00
2019-05-25T17:21:57.719Z,1.00
2019-05-25T17:25:02.619Z,1.10
2019-05-25T17:28:07.532Z,1.20
2019-05-25T17:31:12.602Z,1.30
2019-05-25T17:34:17.494Z,1.03
2019-05-25T17:37:22.243Z,1.20
2019-05-25T17:40:27.072Z,1.00
2019-05-25T17:43:31.882Z,1.30
2019-05-25T17:46:36.728Z,1.20
2019-05-25T17:49:41.550Z,1.30
2019-05-25T17:52:46.294Z,1.17
2019-05-25T17:55:51.037Z,1.20
2019-05-25T17:58:56.873Z,1.00
2019-05-25T18:02:01.612Z,0.97
2019-05-25T18:05:06.973Z,1.20
2019-05-25T18:08:12.238Z,1.10
2019-05-25T18:11:17.124Z,1.30
2019-05-25T18:14:22.894Z,1.40
2019-05-25T18:17:27.725Z,2.00
2019-05-25T18:20:32.449Z,1.30
2019-05-25T18:23:37.397Z,1.37
2019-05-25T18:26:42.322Z,1.60
2019-05-25T18:29:47.171Z,1.20
2019-05-25T18:32:51.985Z,1.63
2019-05-25T18:35:59.002Z,1.40
2019-05-25T18:39:05.355Z,1.30
2019-05-25T18:42:10.831Z,1.33
2019-05-25T18:45:15.925Z,1.70
2019-05-25T18:48:20.683Z,1.73
2019-05-25T18:51:25.601Z,2.43
2019-05-25T18:54:30.577Z,2.20
2019-05-25T18:57:36.394Z,2.60
2019-05-25T19:00:41.210Z,3.30
2019-05-25T19:03:48.816Z,3.10
2019-05-25T19:06:53.704Z,3.30
2019-05-25T19:09:58.514Z,3.60
2019-05-25T19:13:03.304Z,3.60
2019-05-25T19:16:08.482Z,3.30
2019-05-25T19:19:13.878Z,3.40
2019-05-25T19:22:18.635Z,3.57
2019-05-25T19:25:23.451Z,3.33
2019-05-25T19:28:32.314Z,3.60
2019-05-25T19:31:37.513Z,3.60
2019-05-25T19:34:56.668Z,3.33
2019-05-25T19:37:48.866Z,3.30
2019-05-25T19:40:53.780Z,3.50
2019-05-25T19:43:58.832Z,4.30
2019-05-25T19:47:03.760Z,4.10
2019-05-25T19:50:09.717Z,4.27
2019-05-25T19:53:14.455Z,3.70
2019-05-25T19:56:19.283Z,3.63
2019-05-25T19:59:24.507Z,4.20
2019-05-25T20:02:29.566Z,4.00
2019-05-25T20:05:34.703Z,3.73
2019-05-25T20:08:39.647Z,3.90
2019-05-25T20:11:44.828Z,3.97
2019-05-25T20:14:49.697Z,3.90
2019-05-25T20:17:54.576Z,4.17
2019-05-25T20:20:59.793Z,3.63
2019-05-25T20:24:04.681Z,4.27
2019-05-25T20:27:09.510Z,4.00
2019-05-25T20:30:14.685Z,3.70
2019-05-25T20:33:27.691Z,4.00
2019-05-25T20:36:26.047Z,3.90
2019-05-25T20:39:31.220Z,4.20
2019-05-25T20:42:36.568Z,3.80
2019-05-25T20:45:41.570Z,4.20
2019-05-25T20:48:47.032Z,3.77
2019-05-25T20:51:51.847Z,4.00
2019-05-25T20:54:56.607Z,4.07
2019-05-25T20:58:01.362Z,4.33
2019-05-25T21:01:06.386Z,4.90
2019-05-25T21:04:12.152Z,3.93
2019-05-25T21:07:17.160Z,4.00
2019-05-25T21:10:21.932Z,3.90
2019-05-25T21:13:26.769Z,3.77
2019-05-25T21:16:32.125Z,4.00
2019-05-25T21:19:37.217Z,4.03
2019-05-25T21:22:42.231Z,4.27
2019-05-25T21:25:48.406Z,4.37
2019-05-25T21:28:53.387Z,3.83
2019-05-25T21:31:58.129Z,4.30
2019-05-25T21:35:02.953Z,5.43
2019-05-25T21:38:08.183Z,5.07
2019-05-25T21:41:13.041Z,4.07
2019-05-25T21:44:17.888Z,4.50
2019-05-25T21:47:23.633Z,3.77
2019-05-25T21:50:28.478Z,4.10
2019-05-25T21:53:33.617Z,4.27
2019-05-25T21:56:38.799Z,4.57
2019-05-25T21:59:44.145Z,4.20
2019-05-25T22:02:49.189Z,11.37
2019-05-25T22:05:53.981Z,42.73
2019-05-25T22:08:58.846Z,15.83
2019-05-25T22:12:04.795Z,42.17
2019-05-25T22:15:10.625Z,25.63
2019-05-25T22:18:15.435Z,22.43
2019-05-25T22:21:20.589Z,29.47
2019-05-25T22:24:25.871Z,12.93
2019-05-25T22:27:30.670Z,7.40
2019-05-25T22:30:35.507Z,6.70
2019-05-25T22:33:40.674Z,7.30
2019-05-25T22:36:45.731Z,7.13
2019-05-25T22:39:50.503Z,7.23
2019-05-25T22:42:55.381Z,7.23
2019-05-25T22:46:00.223Z,6.50
2019-05-25T22:49:05.427Z,7.37
2019-05-25T22:52:10.524Z,7.03
2019-05-25T22:55:15.716Z,7.10
2019-05-25T22:58:20.648Z,7.90
2019-05-25T23:01:25.476Z,7.27
2019-05-25T23:04:30.312Z,7.73
2019-05-25T23:07:36.129Z,6.73
2019-05-25T23:10:40.906Z,7.70
2019-05-25T23:13:46.422Z,7.23
2019-05-25T23:16:51.526Z,7.00
2019-05-25T23:19:56.589Z,7.43
2019-05-25T23:23:01.377Z,7.33
2019-05-25T23:26:06.680Z,7.27
2019-05-25T23:29:12.054Z,6.80
2019-05-25T23:32:17.164Z,7.30
2019-05-25T23:35:22.183Z,7.27
2019-05-25T23:38:28.548Z,6.50
2019-05-25T23:41:33.464Z,6.80
2019-05-25T23:44:38.395Z,6.60
2019-05-25T23:47:43.175Z,6.20
2019-05-25T23:50:48.294Z,6.20
2019-05-25T23:53:53.486Z,7.40
2019-05-25T23:56:58.219Z,7.13
